Liberal Mid-America Regional Airport Liberal US
ICAO: KLBL
IATA: LBL
Category: Medium
Scheduled Services: Yes

Elevation: 2885 ft
TransAlt. 18000 ft.

Airport Communications:
AWOS 3:118.375
KANSAS CITY CNTR:134
WICHITA RDO:122.4
CTAF/UNICOM:122.8

KLBL Zoom In..

If you have problems with the map follow the link
https://www.worldairports.se/pages/airport.php?
ICAO=KLBL

Runways:

(A) RW 04 length 5721 ft width 150 ft
---- / hdg 35

(B) RW 17 length 7105 ft width 100 ft
---- / hdg 170

(C) RW 22 length 5721 ft width 150 ft
---- / hdg 215

(D) RW 35 length 7105 ft width 100 ft
ILS 111.30 / hdg 350

Location; KLBL
Day. 16 / Time. 02.56 Zulu
* Altimeter: 29.94
* Temperature: -02° c. -28.4°f.
* Wind from: 020° Speed 11 kn.
Dewpoint: -04° c.
Visibility: 10 Statute Miles.
Clouds: Broken 1000 ft.

KLBL 160256Z AUTO 02011KT 10SM BKN100 M02/M04 A2994 RMK AO2 SLP161 T10221044 50003 FZRANO


Wind From 020°
Speed 11 kn.

 
 
jpsmedia worldairports.se 2019   terms of use